Terminal Aerodrome Forecast
Issued by NWS

Home | Current Version | Previous Version | Text Only | Print | Product List | Glossary On
Versions: 1 2 3 4 5 6 7 8 9 10 11 12 13 14 15
000
FTUS45 KTFX 252000 AAA
TAFHVR
TAF AMD
KHVR 252058Z 2521/2618 34015KT P6SM SCT040 BKN120
      TEMPO 2521/2524 32025G35KT
     FM260300 02005KT P6SM VCSH OVC025
     FM261200 08005KT 4SM -SHSN BR OVC025=

USA.gov is the U.S. government's official web portal to all federal, state and local government web resources and services.